createdAt,value
2023-04-27T00:01:50.809Z,6.60
2023-04-27T00:05:37.198Z,6.60
2023-04-27T00:09:19.276Z,6.50
2023-04-27T00:13:01.727Z,6.60
2023-04-27T00:16:43.683Z,6.60
2023-04-27T00:20:25.664Z,6.50
2023-04-27T00:24:07.876Z,6.50
2023-04-27T00:27:49.784Z,6.40
2023-04-27T00:31:31.644Z,6.40
2023-04-27T00:35:13.518Z,6.30
2023-04-27T00:38:55.683Z,6.30
2023-04-27T00:42:37.712Z,6.30
2023-04-27T00:46:19.975Z,6.30
2023-04-27T00:50:01.996Z,6.30
2023-04-27T00:53:43.876Z,6.20
2023-04-27T00:57:25.793Z,6.20
2023-04-27T01:01:07.818Z,6.20
2023-04-27T01:04:50.694Z,6.20
2023-04-27T01:08:32.561Z,6.10
2023-04-27T01:12:14.394Z,6.10
2023-04-27T01:15:56.240Z,6.10
2023-04-27T01:19:38.294Z,6.10
2023-04-27T01:23:20.170Z,6.00
2023-04-27T01:27:02.683Z,6.00
2023-04-27T01:30:44.537Z,5.90
2023-04-27T01:34:26.802Z,5.90
2023-04-27T01:38:08.773Z,5.90
2023-04-27T01:41:50.927Z,5.90
2023-04-27T01:45:32.763Z,6.00
2023-04-27T01:49:14.905Z,6.00
2023-04-27T01:52:57.145Z,6.10
2023-04-27T01:56:39.008Z,6.20
2023-04-27T02:00:21.394Z,6.20
2023-04-27T02:04:04.417Z,6.20
2023-04-27T02:07:46.440Z,6.30
2023-04-27T02:11:28.308Z,6.30
2023-04-27T02:15:10.442Z,6.30
2023-04-27T02:18:53.804Z,6.30
2023-04-27T02:22:35.667Z,6.40
2023-04-27T02:26:19.542Z,6.40
2023-04-27T02:30:05.315Z,6.50
2023-04-27T02:33:47.760Z,6.70
2023-04-27T02:37:29.659Z,6.80
2023-04-27T02:41:11.554Z,6.90
2023-04-27T02:44:53.392Z,7.10
2023-04-27T02:48:35.299Z,7.20
2023-04-27T02:52:17.186Z,7.30
2023-04-27T02:55:59.301Z,7.40
2023-04-27T02:59:41.180Z,7.50
2023-04-27T03:03:24.185Z,7.60
2023-04-27T03:07:06.468Z,7.70
2023-04-27T03:10:48.378Z,7.70
2023-04-27T03:14:30.272Z,7.90
2023-04-27T03:18:12.092Z,7.90
2023-04-27T03:21:53.921Z,8.00
2023-04-27T03:25:36.008Z,8.10
2023-04-27T03:29:18.285Z,8.20
2023-04-27T03:33:00.373Z,8.30
2023-04-27T03:36:42.281Z,8.30
2023-04-27T03:40:24.296Z,8.30
2023-04-27T03:44:07.106Z,8.40
2023-04-27T03:47:49.075Z,8.50
2023-04-27T03:51:34.628Z,8.50
2023-04-27T03:55:16.581Z,8.50
2023-04-27T03:58:58.486Z,8.60
2023-04-27T04:02:40.782Z,8.60
2023-04-27T04:06:22.787Z,8.70
2023-04-27T04:10:05.188Z,8.70
2023-04-27T04:13:47.493Z,8.70
2023-04-27T04:17:29.438Z,8.70
2023-04-27T04:21:11.355Z,8.80
2023-04-27T04:24:53.720Z,8.80
2023-04-27T04:28:35.875Z,8.80
2023-04-27T04:32:19.486Z,8.80
2023-04-27T04:36:04.475Z,8.80
2023-04-27T04:39:46.448Z,8.80
2023-04-27T04:43:28.557Z,8.80
2023-04-27T04:47:10.836Z,8.90
2023-04-27T04:50:52.832Z,8.90
2023-04-27T04:54:34.726Z,8.90
2023-04-27T04:58:16.609Z,8.90
2023-04-27T05:01:58.627Z,8.90
2023-04-27T05:05:40.998Z,8.90
2023-04-27T05:09:23.125Z,9.00
2023-04-27T05:13:07.104Z,9.00
2023-04-27T05:16:49.573Z,9.00
2023-04-27T05:20:34.482Z,9.10
2023-04-27T05:24:17.268Z,9.00
2023-04-27T05:27:59.351Z,9.00
2023-04-27T05:31:41.246Z,9.10
2023-04-27T05:35:23.166Z,9.10
2023-04-27T05:39:05.156Z,9.20
2023-04-27T05:42:47.701Z,9.20
2023-04-27T05:46:29.658Z,9.20
2023-04-27T05:50:11.810Z,9.30
2023-04-27T05:53:55.441Z,9.30
2023-04-27T05:57:37.383Z,9.30
2023-04-27T06:01:19.290Z,9.40
2023-04-27T06:05:01.734Z,9.40
2023-04-27T06:08:43.764Z,9.50
2023-04-27T06:12:25.688Z,9.60
2023-04-27T06:16:08.258Z,9.60
2023-04-27T06:19:50.198Z,9.60
2023-04-27T06:23:32.071Z,9.70
2023-04-27T06:27:13.974Z,9.70
2023-04-27T06:30:55.950Z,9.70
2023-04-27T06:34:37.873Z,9.70
2023-04-27T06:38:19.766Z,9.70
2023-04-27T06:42:02.054Z,9.80
2023-04-27T06:45:43.957Z,9.80
2023-04-27T06:49:26.048Z,9.80
2023-04-27T06:53:08.388Z,9.80
2023-04-27T06:56:50.352Z,9.90
2023-04-27T07:00:32.448Z,9.90
2023-04-27T07:04:14.502Z,9.90
2023-04-27T07:07:56.446Z,9.90
2023-04-27T07:11:38.359Z,10.00
2023-04-27T07:15:22.394Z,10.10
2023-04-27T07:19:04.404Z,10.10
2023-04-27T07:22:46.516Z,10.20
2023-04-27T07:26:28.423Z,10.30
2023-04-27T07:30:13.324Z,10.30
2023-04-27T07:33:55.341Z,10.50
2023-04-27T07:37:38.390Z,10.60
2023-04-27T07:41:20.354Z,10.70
2023-04-27T07:45:02.360Z,10.80
2023-04-27T07:48:44.984Z,10.90
2023-04-27T07:52:26.891Z,10.90
2023-04-27T07:56:10.204Z,10.90
2023-04-27T07:59:52.096Z,10.90
2023-04-27T08:03:34.238Z,10.90
2023-04-27T08:07:18.095Z,11.00
2023-04-27T08:11:00.260Z,11.10
2023-04-27T08:14:42.592Z,11.10
2023-04-27T08:18:27.256Z,11.20
2023-04-27T08:22:09.299Z,11.20
2023-04-27T08:25:51.341Z,11.30
2023-04-27T08:29:33.628Z,11.30
2023-04-27T08:33:15.980Z,11.40
2023-04-27T08:36:58.148Z,11.50
2023-04-27T08:40:44.123Z,11.60
2023-04-27T08:44:26.318Z,11.70
2023-04-27T08:48:09.061Z,11.80
2023-04-27T08:51:50.951Z,11.80
2023-04-27T08:55:33.108Z,11.90
2023-04-27T08:59:16.914Z,12.00
2023-04-27T09:03:04.138Z,12.10
2023-04-27T09:06:46.532Z,12.30
2023-04-27T09:10:31.452Z,12.50
2023-04-27T09:14:22.119Z,12.80
2023-04-27T09:18:04.113Z,13.20
2023-04-27T09:21:48.268Z,13.60
2023-04-27T09:25:32.192Z,13.90
2023-04-27T09:29:14.392Z,14.20
2023-04-27T09:33:02.040Z,14.40
2023-04-27T09:36:44.379Z,14.50
2023-04-27T09:40:29.709Z,14.60
2023-04-27T09:44:11.629Z,14.80
2023-04-27T09:47:54.151Z,15.00
2023-04-27T09:51:36.094Z,15.10
2023-04-27T09:55:25.768Z,15.10
2023-04-27T09:59:55.468Z,14.90
2023-04-27T10:03:51.836Z,14.60
2023-04-27T10:07:35.629Z,14.40
2023-04-27T10:11:19.406Z,14.20
2023-04-27T10:15:15.500Z,14.00
2023-04-27T10:18:57.664Z,13.80
2023-04-27T10:22:44.859Z,13.70
2023-04-27T10:26:28.180Z,13.60
2023-04-27T10:30:14.085Z,13.60
2023-04-27T10:34:10.025Z,13.50
2023-04-27T10:37:53.217Z,13.40
2023-04-27T10:41:36.381Z,13.40
2023-04-27T10:45:31.226Z,13.30
2023-04-27T10:49:16.356Z,13.30
2023-04-27T10:53:05.629Z,13.30
2023-04-27T10:56:47.573Z,13.40
2023-04-27T11:00:33.517Z,13.40
2023-04-27T11:04:17.512Z,13.50
2023-04-27T11:08:11.012Z,13.60
2023-04-27T11:11:53.437Z,13.60
2023-04-27T11:15:50.500Z,13.60
2023-04-27T11:19:32.841Z,13.50
2023-04-27T11:23:29.024Z,13.40
2023-04-27T11:27:10.966Z,13.30
2023-04-27T11:30:59.689Z,13.30
2023-04-27T11:34:50.461Z,13.20
2023-04-27T11:38:36.062Z,13.10
2023-04-27T11:42:26.491Z,13.00
2023-04-27T11:46:10.952Z,12.90
2023-04-27T11:49:55.205Z,12.80
2023-04-27T11:53:38.827Z,12.70
2023-04-27T11:57:29.003Z,12.60
2023-04-27T12:01:12.095Z,12.50
2023-04-27T12:04:54.178Z,12.50
2023-04-27T12:08:36.332Z,12.50
2023-04-27T12:12:18.455Z,12.50
2023-04-27T12:16:01.083Z,12.40
2023-04-27T12:19:43.220Z,12.40
2023-04-27T12:23:25.212Z,12.40
2023-04-27T12:27:07.692Z,12.30
2023-04-27T12:30:49.935Z,12.30
2023-04-27T12:34:33.176Z,12.20
2023-04-27T12:38:15.148Z,12.10
2023-04-27T12:41:58.343Z,12.00
2023-04-27T12:45:40.275Z,11.90
2023-04-27T12:49:22.340Z,11.90
2023-04-27T12:53:04.266Z,11.80
2023-04-27T12:56:47.122Z,11.80
2023-04-27T13:00:29.946Z,11.70
2023-04-27T13:04:19.407Z,11.60
2023-04-27T13:08:02.716Z,11.60
2023-04-27T13:11:44.898Z,11.60
2023-04-27T13:15:26.910Z,11.60
2023-04-27T13:19:08.848Z,11.60
2023-04-27T13:22:50.806Z,11.50
2023-04-27T13:26:32.829Z,11.50
2023-04-27T13:30:14.786Z,11.60
2023-04-27T13:33:56.737Z,11.50
2023-04-27T13:37:42.383Z,11.50
2023-04-27T13:41:24.429Z,11.50
2023-04-27T13:45:07.132Z,11.60
2023-04-27T13:48:49.042Z,11.70
2023-04-27T13:52:31.149Z,11.80
2023-04-27T13:56:13.096Z,11.90
2023-04-27T13:59:54.978Z,11.90
2023-04-27T14:03:37.054Z,11.90
2023-04-27T14:07:20.121Z,12.00
2023-04-27T14:11:02.015Z,12.00
2023-04-27T14:14:43.938Z,11.90
2023-04-27T14:18:32.180Z,12.00
2023-04-27T14:22:14.700Z,12.00
2023-04-27T14:25:56.914Z,11.90
2023-04-27T14:29:38.848Z,12.00
2023-04-27T14:33:20.762Z,12.00
2023-04-27T14:37:02.663Z,12.10
2023-04-27T14:40:44.693Z,12.10
2023-04-27T14:44:26.855Z,12.20
2023-04-27T14:48:08.871Z,12.30
2023-04-27T14:51:50.813Z,12.20
2023-04-27T14:55:32.755Z,12.10
2023-04-27T14:59:14.830Z,12.00
2023-04-27T15:02:57.099Z,11.80
2023-04-27T15:06:39.438Z,11.80
2023-04-27T15:10:21.568Z,11.70
2023-04-27T15:14:03.474Z,11.70
2023-04-27T15:17:45.550Z,11.70
2023-04-27T15:21:27.507Z,11.70
2023-04-27T15:25:09.708Z,11.70
2023-04-27T15:28:51.955Z,11.60
2023-04-27T15:32:34.051Z,11.70
2023-04-27T15:36:17.510Z,11.60
2023-04-27T15:39:59.406Z,11.50
2023-04-27T15:43:41.560Z,11.50
2023-04-27T15:47:23.487Z,11.50
2023-04-27T15:51:09.521Z,11.50
2023-04-27T15:54:52.089Z,11.40
2023-04-27T15:58:33.974Z,11.40
2023-04-27T16:02:16.102Z,11.40
2023-04-27T16:05:58.130Z,11.40
2023-04-27T16:09:40.481Z,11.40
2023-04-27T16:13:23.015Z,11.40
2023-04-27T16:17:04.940Z,11.30
2023-04-27T16:20:47.457Z,11.40
2023-04-27T16:24:31.392Z,11.40
2023-04-27T16:28:13.382Z,11.40
2023-04-27T16:31:55.479Z,11.40
2023-04-27T16:35:37.410Z,11.40
2023-04-27T16:39:19.484Z,11.40
2023-04-27T16:43:01.421Z,11.40
2023-04-27T16:46:43.432Z,11.40
2023-04-27T16:50:25.729Z,11.40
2023-04-27T16:54:07.696Z,11.40
2023-04-27T16:57:50.200Z,11.40
2023-04-27T17:01:32.170Z,11.50
2023-04-27T17:05:14.244Z,11.50
2023-04-27T17:08:57.640Z,11.50
2023-04-27T17:12:40.092Z,11.50
2023-04-27T17:16:22.305Z,11.50
2023-04-27T17:20:06.459Z,11.50
2023-04-27T17:23:50.689Z,11.50
2023-04-27T17:27:32.653Z,11.50
2023-04-27T17:31:15.301Z,11.60
2023-04-27T17:34:57.637Z,11.60
2023-04-27T17:38:39.560Z,11.60
2023-04-27T17:42:21.601Z,11.60
2023-04-27T17:46:09.699Z,11.60
2023-04-27T17:49:51.746Z,11.60
2023-04-27T17:53:33.706Z,11.60
2023-04-27T17:57:15.732Z,11.60
2023-04-27T18:00:57.731Z,11.60
2023-04-27T18:04:39.708Z,11.60
2023-04-27T18:08:21.667Z,11.70
2023-04-27T18:12:10.766Z,11.70
2023-04-27T18:15:53.051Z,11.70
2023-04-27T18:19:34.955Z,11.80
2023-04-27T18:23:16.896Z,11.80
2023-04-27T18:27:00.043Z,11.80
2023-04-27T18:30:42.116Z,11.80
2023-04-27T18:34:24.089Z,11.80
2023-04-27T18:38:06.223Z,11.80
2023-04-27T18:41:48.343Z,11.90
2023-04-27T18:45:30.918Z,11.90
2023-04-27T18:49:13.189Z,11.80
2023-04-27T18:52:55.189Z,11.80
2023-04-27T18:56:37.181Z,11.80
2023-04-27T19:00:19.293Z,11.80
2023-04-27T19:04:01.765Z,11.80
2023-04-27T19:07:43.917Z,11.80
2023-04-27T19:11:26.129Z,11.80
2023-04-27T19:15:08.434Z,11.80
2023-04-27T19:18:50.511Z,11.80
2023-04-27T19:22:36.794Z,11.80
2023-04-27T19:26:18.695Z,11.80
2023-04-27T19:30:02.512Z,11.80
2023-04-27T19:33:47.278Z,11.80
2023-04-27T19:37:37.126Z,11.80
2023-04-27T19:41:19.028Z,11.80
2023-04-27T19:45:01.137Z,11.80
2023-04-27T19:48:43.085Z,11.80
2023-04-27T19:52:28.426Z,11.80
2023-04-27T19:56:10.323Z,11.80
2023-04-27T19:59:52.208Z,11.80
2023-04-27T20:03:35.808Z,11.80
2023-04-27T20:07:17.853Z,11.80
2023-04-27T20:10:59.733Z,11.80
2023-04-27T20:14:42.593Z,11.80
2023-04-27T20:18:25.701Z,11.80
2023-04-27T20:22:07.653Z,11.90
2023-04-27T20:25:49.624Z,11.90
2023-04-27T20:29:32.588Z,11.90
2023-04-27T20:33:14.579Z,11.90
2023-04-27T20:36:57.915Z,12.00
2023-04-27T20:40:40.002Z,12.00
2023-04-27T20:44:22.572Z,12.00
2023-04-27T20:48:07.988Z,12.00
2023-04-27T20:51:50.042Z,12.00
2023-04-27T20:55:32.075Z,12.10
2023-04-27T20:59:13.968Z,12.10
2023-04-27T21:02:56.008Z,12.10
2023-04-27T21:06:38.455Z,12.10
2023-04-27T21:10:20.425Z,12.10
2023-04-27T21:14:02.764Z,12.10
2023-04-27T21:17:44.772Z,12.10
2023-04-27T21:21:27.051Z,12.20
2023-04-27T21:25:09.262Z,12.20
2023-04-27T21:28:52.190Z,12.20
2023-04-27T21:32:34.104Z,12.20
2023-04-27T21:36:16.245Z,12.30
2023-04-27T21:39:58.155Z,12.30
2023-04-27T21:43:42.109Z,12.30
2023-04-27T21:47:24.136Z,12.40
2023-04-27T21:51:06.120Z,12.40
2023-04-27T21:54:48.334Z,12.40
2023-04-27T21:58:30.304Z,12.40
2023-04-27T22:02:12.381Z,12.40
2023-04-27T22:05:57.541Z,12.40
2023-04-27T22:09:39.449Z,12.40
2023-04-27T22:13:21.500Z,12.40
2023-04-27T22:17:03.533Z,12.40
2023-04-27T22:20:46.067Z,12.50
2023-04-27T22:24:27.962Z,12.50
2023-04-27T22:28:10.562Z,12.50
2023-04-27T22:31:52.512Z,12.50
2023-04-27T22:35:35.020Z,12.50
2023-04-27T22:39:16.991Z,12.50
2023-04-27T22:42:58.898Z,12.50
2023-04-27T22:46:43.291Z,12.50
2023-04-27T22:50:25.230Z,12.60
2023-04-27T22:54:07.169Z,12.50
2023-04-27T22:57:50.079Z,12.60
2023-04-27T23:01:32.110Z,12.60
2023-04-27T23:05:14.424Z,12.60
2023-04-27T23:08:56.799Z,12.60
2023-04-27T23:12:39.068Z,12.60
2023-04-27T23:16:21.864Z,12.60
2023-04-27T23:20:24.024Z,12.60
2023-04-27T23:24:09.103Z,12.60
2023-04-27T23:27:52.548Z,12.60
2023-04-27T23:31:34.891Z,12.60
2023-04-27T23:35:16.972Z,12.60
2023-04-27T23:38:58.862Z,12.60
2023-04-27T23:42:40.735Z,12.60
2023-04-27T23:46:22.777Z,12.60
2023-04-27T23:50:05.163Z,12.60
2023-04-27T23:53:47.192Z,12.60
2023-04-27T23:57:29.086Z,12.70
